地図

経路データ

SID SEASON NUMBER BASIN SUBBASIN NAME ISO_TIME NATURE LAT LON WMO_WIND WMO_PRES WMO_AGENCY TRACK_TYPE DIST2LAND LANDFALL IFLAG USA_AGENCY USA_ATCF_ID USA_LAT USA_LON USA_RECORD USA_STATUS USA_WIND USA_PRES USA_SSHS USA_R34_NE USA_R34_SE USA_R34_SW USA_R34_NW USA_R50_NE USA_R50_SE USA_R50_SW USA_R50_NW USA_R64_NE USA_R64_SE USA_R64_SW USA_R64_NW USA_POCI USA_ROCI USA_RMW USA_EYE TOKYO_LAT TOKYO_LON TOKYO_GRADE TOKYO_WIND TOKYO_PRES TOKYO_R50_DIR TOKYO_R50_LONG TOKYO_R50_SHORT TOKYO_R30_DIR TOKYO_R30_LONG TOKYO_R30_SHORT TOKYO_LAND CMA_LAT CMA_LON CMA_CAT CMA_WIND CMA_PRES HKO_LAT HKO_LON HKO_CAT HKO_WIND HKO_PRES NEWDELHI_LAT NEWDELHI_LON NEWDELHI_GRADE NEWDELHI_WIND NEWDELHI_PRES NEWDELHI_CI NEWDELHI_DP NEWDELHI_POCI REUNION_LAT REUNION_LON REUNION_TYPE REUNION_WIND REUNION_PRES REUNION_TNUM REUNION_CI REUNION_RMW REUNION_R34_NE REUNION_R34_SE REUNION_R34_SW REUNION_R34_NW REUNION_R50_NE REUNION_R50_SE REUNION_R50_SW REUNION_R50_NW REUNION_R64_NE REUNION_R64_SE REUNION_R64_SW REUNION_R64_NW BOM_LAT BOM_LON BOM_TYPE BOM_WIND BOM_PRES BOM_TNUM BOM_CI BOM_RMW BOM_R34_NE BOM_R34_SE BOM_R34_SW BOM_R34_NW BOM_R50_NE BOM_R50_SE BOM_R50_SW BOM_R50_NW BOM_R64_NE BOM_R64_SE BOM_R64_SW BOM_R64_NW BOM_ROCI BOM_POCI BOM_EYE BOM_POS_METHOD BOM_PRES_METHOD NADI_LAT NADI_LON NADI_CAT NADI_WIND NADI_PRES WELLINGTON_LAT WELLINGTON_LON WELLINGTON_WIND WELLINGTON_PRES DS824_LAT DS824_LON DS824_STAGE DS824_WIND DS824_PRES TD9636_LAT TD9636_LON TD9636_STAGE TD9636_WIND TD9636_PRES TD9635_LAT TD9635_LON TD9635_WIND TD9635_PRES TD9635_ROCI NEUMANN_LAT NEUMANN_LON NEUMANN_CLASS NEUMANN_WIND NEUMANN_PRES MLC_LAT MLC_LON MLC_CLASS MLC_WIND MLC_PRES USA_GUST BOM_GUST BOM_GUST_PER REUNION_GUST REUNION_GUST_PER USA_SEAHGT USA_SEARAD_NE USA_SEARAD_SE USA_SEARAD_SW USA_SEARAD_NW STORM_SPEED STORM_DIR
1878011S19054 1878 3 SI MM NOT_NAMED 1878-01-11 06:00:00 NR -18.5000 54.2000 spur-split 302 267 __________O___ -1 -18.5000 54.2000 7 11 208
1878011S19054 1878 3 SI MM NOT_NAMED 1878-01-11 09:00:00 NR -18.9910 53.9248 spur-split 267 236 __________P___ -1 -18.9910 53.9248 7 11 207
1878011S19054 1878 3 SI MM NOT_NAMED 1878-01-11 12:00:00 NR -19.4855 53.6590 spur-split 236 222 __________P___ -1 -19.4855 53.6590 7 11 206
1878011S19054 1878 3 SI MM NOT_NAMED 1878-01-11 15:00:00 NR -19.9872 53.4136 spur-split 224 212 __________P___ -1 -19.9872 53.4136 7 11 203
1878011S19054 1878 3 SI MM NOT_NAMED 1878-01-11 18:00:00 NR -20.5000 53.2000 spur-split 218 215 __________O___ -1 -20.5000 53.2000 7 11 199
1878011S19054 1878 3 SI MM NOT_NAMED 1878-01-11 21:00:00 NR -21.0273 53.0264 spur-split 228 228 __________P___ -1 -21.0273 53.0264 7 11 195
1878011S19054 1878 3 SI MM NOT_NAMED 1878-01-12 00:00:00 NR -21.5698 52.8895 spur-split 244 244 __________P___ -1 -21.5698 52.8895 7 11 192
1878011S19054 1878 3 SI MM NOT_NAMED 1878-01-12 03:00:00 NR -22.1274 52.7828 spur-split 272 272 __________P___ -1 -22.1274 52.7828 7 12 189
1878011S19054 1878 3 SI MM NOT_NAMED 1878-01-12 06:00:00 NR -22.7000 52.7000 spur-split 310 310 __________O___ -1 -22.7000 52.7000 7 12 189
1878011S19054 1878 3 SI MM NOT_NAMED 1878-01-12 09:00:00 NR -23.2815 52.5965 spur-split 356 356 __________P___ -1 -23.2815 52.5965 7 12 188
1878011S19054 1878 3 SI MM NOT_NAMED 1878-01-12 12:00:00 NR -23.8774 52.5186 spur-split 408 408 __________P___ -1 -23.8774 52.5186 7 12 185
1878011S19054 1878 3 SI MM NOT_NAMED 1878-01-12 15:00:00 NR -24.4846 52.4813 spur-split 458 458 __________P___ -1 -24.4846 52.4813 7 12 181
1878011S19054 1878 3 SI MM NOT_NAMED 1878-01-12 18:00:00 NR -25.1000 52.5000 spur-split 512 512 __________O___ -1 -25.1000 52.5000 7 12 176
1878011S19054 1878 3 SI MM NOT_NAMED 1878-01-12 21:00:00 NR -25.7217 52.5681 spur-split 548 548 __________P___ -1 -25.7217 52.5681 7 13 172
1878011S19054 1878 3 SI MM NOT_NAMED 1878-01-13 00:00:00 NR -26.3497 52.6953 spur-split 578 578 __________P___ -1 -26.3497 52.6953 7 13 168
1878011S19054 1878 3 SI MM NOT_NAMED 1878-01-13 03:00:00 NR -26.9779 52.8749 spur-split 620 620 __________P___ -1 -26.9779 52.8749 7 13 164
1878011S19054 1878 3 SI MM NOT_NAMED 1878-01-13 06:00:00 NR -27.6000 53.1000 spur-split 664 664 __________O___ -1 -27.6000 53.1000 7 13 162
1878011S19054 1878 3 SI MM NOT_NAMED 1878-01-13 09:00:00 NR -28.2354 53.3405 spur-split 711 711 __________P___ -1 -28.2354 53.3405 7 13 160
1878011S19054 1878 3 SI MM NOT_NAMED 1878-01-13 12:00:00 NR -28.8597 53.6249 spur-split 776 776 __________P___ -1 -28.8597 53.6249 7 13 156
1878011S19054 1878 3 SI MM NOT_NAMED 1878-01-13 15:00:00 NR -29.4541 53.9469 spur-split 838 838 __________P___ -1 -29.4541 53.9469 7 13 153
1878011S19054 1878 3 SI MM NOT_NAMED 1878-01-13 18:00:00 NR -30.0000 54.3000 spur-split 902 902 __________O___ -1 -30.0000 54.3000 7 12 149
1878011S19054 1878 3 SI MM NOT_NAMED 1878-01-13 21:00:00 NR -30.4789 54.6526 spur-split 966 966 __________P___ -1 -30.4789 54.6526 7 11 145
1878011S19054 1878 3 SI MM NOT_NAMED 1878-01-14 00:00:00 NR -30.9092 55.0350 spur-split 1016 1016 __________P___ -1 -30.9092 55.0350 7 11 141
1878011S19054 1878 3 SI MM NOT_NAMED 1878-01-14 03:00:00 NR -31.3099 55.4497 spur-split 1074 1074 __________P___ -1 -31.3099 55.4497 7 11 137
1878011S19054 1878 3 SI MM NOT_NAMED 1878-01-14 06:00:00 NR -31.7000 55.9000 spur-split 1138 1138 __________O___ -1 -31.7000 55.9000 7 11 135
1878011S19054 1878 3 SI MM NOT_NAMED 1878-01-14 09:00:00 NR -32.1072 56.3898 spur-split 1197 1197 __________P___ -1 -32.1072 56.3898 7 12 133
1878011S19054 1878 3 SI MM NOT_NAMED 1878-01-14 12:00:00 NR -32.5075 56.9136 spur-split 1246 1246 __________P___ -1 -32.5075 56.9136 7 12 132
1878011S19054 1878 3 SI MM NOT_NAMED 1878-01-14 15:00:00 NR -32.9040 57.4557 spur-split 1297 1297 __________P___ -1 -32.9040 57.4557 7 12 131
1878011S19054 1878 3 SI MM NOT_NAMED 1878-01-14 18:00:00 NR -33.3000 58.0000 spur-split 1349 1349 __________O___ -1 -33.3000 58.0000 7 12 131
1878011S19054 1878 3 SI MM NOT_NAMED 1878-01-14 21:00:00 NR -33.6984 58.5340 spur-split 1402 1402 __________P___ -1 -33.6984 58.5340 7 12 132
1878011S19054 1878 3 SI MM NOT_NAMED 1878-01-15 00:00:00 NR -34.0987 59.0588 spur-split 1458 1458 __________P___ -1 -34.0987 59.0588 7 12 133
1878011S19054 1878 3 SI MM NOT_NAMED 1878-01-15 03:00:00 NR -34.4998 59.5793 spur-split 1513 1513 __________P___ -1 -34.4998 59.5793 7 12 133
1878011S19054 1878 3 SI MM NOT_NAMED 1878-01-15 06:00:00 NR -34.9000 60.1000 spur-split 1569 __________O___ -1 -34.9000 60.1000 7 12 133

IBTrACS Databaseについて

本データベースは、米国NOAAが公開する1842年以降の世界の熱帯低気圧のベストトラックデータアーカイブInternational Best Track Archive for Climate Stewardship (IBTrACS)を、ウェブで閲覧しやすい形式に変換したものです。

最終更新日:2021-10-21